RYR2402 EPWA-LJLJ
Flight info
| Callsign | RYR2402 |
|---|---|
| Flight time | 1h 10m |
| Altitude | 36000 |
| Route | EVINA N744 TUSIN DCT MIKOV DCT RADLY DCT OFROZ |
| Aircraft | B38M/M-SDE1FGHILORVWXY/HB1 |
Departure
| Time | 2026-04-21 08:58 |
|---|---|
| Airport | Warsaw Chopin Airport (EPWA) |
Arrival
| Time | 2026-04-21 10:09 |
|---|---|
| Airport | Ljubljana Jože Pučnik Airport (LJLJ) |
| Time | Latitude | Longitude | Altitude | Speed | Heading |
|---|---|---|---|---|---|
| 2026-04-21 08:35 | 52.16998 | 20.97135 | 336 ft | 0 kts | 70° |
| 2026-04-21 08:46 | 52.16997 | 20.97130 | 340 ft | 2 kts | 70° |
| 2026-04-21 08:46 | 52.16992 | 20.97105 | 334 ft | 2 kts | 71° |
| 2026-04-21 08:47 | 52.16987 | 20.97080 | 334 ft | 2 kts | 74° |
| 2026-04-21 08:47 | 52.16983 | 20.97054 | 335 ft | 2 kts | 78° |
| 2026-04-21 08:47 | 52.16980 | 20.97027 | 335 ft | 2 kts | 87° |
| 2026-04-21 08:47 | 52.16981 | 20.97001 | 336 ft | 2 kts | 121° |
| 2026-04-21 08:48 | 52.16990 | 20.96986 | 336 ft | 1 kts | 153° |
| 2026-04-21 08:48 | 52.16991 | 20.96985 | 336 ft | 0 kts | 153° |
| 2026-04-21 08:51 | 52.16991 | 20.96986 | 336 ft | 0 kts | 153° |
| 2026-04-21 08:52 | 52.16986 | 20.96989 | 336 ft | 1 kts | 153° |
| 2026-04-21 08:52 | 52.16973 | 20.97000 | 334 ft | 3 kts | 153° |
| 2026-04-21 08:52 | 52.16952 | 20.97018 | 338 ft | 4 kts | 150° |
| 2026-04-21 08:52 | 52.16923 | 20.97045 | 339 ft | 6 kts | 150° |
| 2026-04-21 08:53 | 52.16885 | 20.97080 | 337 ft | 7 kts | 152° |
| 2026-04-21 08:53 | 52.16838 | 20.97119 | 335 ft | 8 kts | 153° |
| 2026-04-21 08:53 | 52.16783 | 20.97166 | 338 ft | 10 kts | 152° |
| 2026-04-21 08:53 | 52.16720 | 20.97222 | 338 ft | 11 kts | 152° |
| 2026-04-21 08:54 | 52.16648 | 20.97284 | 338 ft | 12 kts | 152° |
| 2026-04-21 08:54 | 52.16576 | 20.97366 | 335 ft | 13 kts | 125° |
| 2026-04-21 08:54 | 52.16538 | 20.97500 | 335 ft | 13 kts | 114° |
| 2026-04-21 08:54 | 52.16499 | 20.97637 | 336 ft | 13 kts | 114° |
| 2026-04-21 08:55 | 52.16460 | 20.97779 | 339 ft | 14 kts | 115° |
| 2026-04-21 08:55 | 52.16412 | 20.97807 | 336 ft | 7 kts | 210° |
| 2026-04-21 08:55 | 52.16373 | 20.97771 | 337 ft | 6 kts | 204° |
| 2026-04-21 08:55 | 52.16327 | 20.97737 | 335 ft | 8 kts | 204° |
| 2026-04-21 08:56 | 52.16307 | 20.97687 | 336 ft | 6 kts | 261° |
| 2026-04-21 08:56 | 52.16315 | 20.97638 | 337 ft | 0 kts | 294° |
| 2026-04-21 08:57 | 52.16330 | 20.97584 | 334 ft | 19 kts | 294° |
| 2026-04-21 08:57 | 52.16471 | 20.97080 | 337 ft | 79 kts | 295° |
| 2026-04-21 08:57 | 52.16776 | 20.95997 | 337 ft | 129 kts | 295° |
| 2026-04-21 08:58 | 52.17190 | 20.94474 | 399 ft | 161 kts | 295° |
| 2026-04-21 08:58 | 52.17605 | 20.92672 | 579 ft | 179 kts | 292° |
| 2026-04-21 08:58 | 52.17988 | 20.90728 | 1094 ft | 182 kts | 290° |
| 2026-04-21 08:58 | 52.18246 | 20.88645 | 1606 ft | 193 kts | 264° |
| 2026-04-21 08:59 | 52.17896 | 20.86495 | 2082 ft | 202 kts | 256° |
| 2026-04-21 08:59 | 52.17489 | 20.84249 | 2215 ft | 212 kts | 258° |
| 2026-04-21 08:59 | 52.17133 | 20.81818 | 2584 ft | 228 kts | 261° |
| 2026-04-21 08:59 | 52.16793 | 20.79200 | 3016 ft | 243 kts | 260° |
| 2026-04-21 09:00 | 52.16427 | 20.76416 | 3420 ft | 259 kts | 261° |
| 2026-04-21 09:00 | 52.16029 | 20.73491 | 3951 ft | 268 kts | 258° |
| 2026-04-21 09:00 | 52.15260 | 20.70712 | 4574 ft | 276 kts | 230° |
| 2026-04-21 09:00 | 52.13833 | 20.68602 | 5259 ft | 280 kts | 219° |
| 2026-04-21 09:01 | 52.12371 | 20.66780 | 5884 ft | 282 kts | 217° |
| 2026-04-21 09:01 | 52.11038 | 20.65155 | 6446 ft | 284 kts | 218° |
| 2026-04-21 09:01 | 52.09638 | 20.63397 | 6999 ft | 287 kts | 218° |
| 2026-04-21 09:01 | 52.08069 | 20.61390 | 7636 ft | 288 kts | 218° |
| 2026-04-21 09:02 | 52.06480 | 20.59375 | 8258 ft | 291 kts | 218° |
| 2026-04-21 09:02 | 52.04875 | 20.57354 | 8894 ft | 293 kts | 217° |
| 2026-04-21 09:02 | 52.03257 | 20.55317 | 9510 ft | 296 kts | 217° |
| 2026-04-21 09:03 | 51.99964 | 20.51168 | 10582 ft | 305 kts | 217° |
| 2026-04-21 09:03 | 51.98251 | 20.49015 | 10896 ft | 318 kts | 217° |
| 2026-04-21 09:03 | 51.96464 | 20.46771 | 11099 ft | 332 kts | 217° |
| 2026-04-21 09:03 | 51.94480 | 20.44787 | 11459 ft | 340 kts | 198° |
| 2026-04-21 09:04 | 51.92161 | 20.44016 | 11893 ft | 343 kts | 185° |
| 2026-04-21 09:04 | 51.89767 | 20.43649 | 12353 ft | 348 kts | 182° |
| 2026-04-21 09:04 | 51.87336 | 20.43365 | 12830 ft | 352 kts | 182° |
| 2026-04-21 09:04 | 51.84880 | 20.43005 | 13327 ft | 357 kts | 183° |
| 2026-04-21 09:05 | 51.82396 | 20.42591 | 13847 ft | 360 kts | 183° |
| 2026-04-21 09:05 | 51.79887 | 20.42195 | 14309 ft | 364 kts | 182° |
| 2026-04-21 09:05 | 51.77358 | 20.41823 | 14755 ft | 367 kts | 182° |
| 2026-04-21 09:05 | 51.74809 | 20.41444 | 15216 ft | 369 kts | 182° |
| 2026-04-21 09:06 | 51.72243 | 20.41049 | 15692 ft | 372 kts | 183° |
| 2026-04-21 09:06 | 51.69661 | 20.40653 | 16163 ft | 374 kts | 183° |
| 2026-04-21 09:06 | 51.67059 | 20.40260 | 16630 ft | 376 kts | 182° |
| 2026-04-21 09:06 | 51.64445 | 20.39867 | 17097 ft | 378 kts | 183° |
| 2026-04-21 09:07 | 51.61817 | 20.39469 | 17560 ft | 381 kts | 183° |
| 2026-04-21 09:07 | 51.59173 | 20.39068 | 18019 ft | 383 kts | 183° |
| 2026-04-21 09:07 | 51.56548 | 20.38672 | 18462 ft | 385 kts | 183° |
| 2026-04-21 09:07 | 51.53876 | 20.38269 | 18851 ft | 387 kts | 183° |
| 2026-04-21 09:08 | 51.51189 | 20.37864 | 19233 ft | 389 kts | 182° |
| 2026-04-21 09:08 | 51.48487 | 20.37457 | 19622 ft | 391 kts | 182° |
| 2026-04-21 09:08 | 51.45777 | 20.37050 | 20010 ft | 392 kts | 182° |
| 2026-04-21 09:08 | 51.43050 | 20.36641 | 20391 ft | 394 kts | 182° |
| 2026-04-21 09:09 | 51.40327 | 20.36118 | 20779 ft | 397 kts | 190° |
| 2026-04-21 09:09 | 51.37730 | 20.34540 | 21164 ft | 404 kts | 207° |
| 2026-04-21 09:09 | 51.35407 | 20.31987 | 21532 ft | 407 kts | 214° |
| 2026-04-21 09:09 | 51.33149 | 20.29236 | 21883 ft | 409 kts | 216° |
| 2026-04-21 09:10 | 51.30898 | 20.26452 | 22228 ft | 410 kts | 215° |
| 2026-04-21 09:10 | 51.28613 | 20.23698 | 22572 ft | 412 kts | 214° |
| 2026-04-21 09:10 | 51.26310 | 20.20960 | 22905 ft | 414 kts | 214° |
| 2026-04-21 09:10 | 51.24004 | 20.18194 | 23232 ft | 416 kts | 214° |
| 2026-04-21 09:11 | 51.21689 | 20.15400 | 23535 ft | 418 kts | 214° |
| 2026-04-21 09:11 | 51.19360 | 20.12600 | 23818 ft | 420 kts | 214° |
| 2026-04-21 09:11 | 51.17014 | 20.09798 | 24061 ft | 422 kts | 214° |
| 2026-04-21 09:11 | 51.14660 | 20.06987 | 24309 ft | 424 kts | 214° |
| 2026-04-21 09:12 | 51.12293 | 20.04158 | 24563 ft | 426 kts | 214° |
| 2026-04-21 09:12 | 51.09917 | 20.01320 | 24813 ft | 428 kts | 214° |
| 2026-04-21 09:12 | 51.07526 | 19.98478 | 25067 ft | 430 kts | 214° |
| 2026-04-21 09:12 | 51.05125 | 19.95637 | 25318 ft | 431 kts | 214° |
| 2026-04-21 09:13 | 51.02715 | 19.92783 | 25599 ft | 432 kts | 215° |
| 2026-04-21 09:13 | 51.00300 | 19.89922 | 25869 ft | 434 kts | 216° |
| 2026-04-21 09:13 | 50.97881 | 19.87058 | 26133 ft | 435 kts | 216° |
| 2026-04-21 09:13 | 50.95453 | 19.84190 | 26396 ft | 436 kts | 216° |
| 2026-04-21 09:14 | 50.93021 | 19.81319 | 26672 ft | 437 kts | 216° |
| 2026-04-21 09:14 | 50.90580 | 19.78443 | 26925 ft | 438 kts | 216° |
| 2026-04-21 09:14 | 50.88135 | 19.75565 | 27180 ft | 439 kts | 216° |
| 2026-04-21 09:14 | 50.85679 | 19.72678 | 27441 ft | 440 kts | 216° |
| 2026-04-21 09:15 | 50.83219 | 19.69791 | 27709 ft | 441 kts | 217° |
| 2026-04-21 09:15 | 50.80750 | 19.66896 | 27962 ft | 442 kts | 217° |
| 2026-04-21 09:15 | 50.78279 | 19.64002 | 28216 ft | 443 kts | 217° |
| 2026-04-21 09:15 | 50.75801 | 19.61106 | 28470 ft | 444 kts | 217° |
| 2026-04-21 09:16 | 50.73315 | 19.58204 | 28713 ft | 445 kts | 217° |
| 2026-04-21 09:16 | 50.70856 | 19.55337 | 28948 ft | 446 kts | 217° |
| 2026-04-21 09:16 | 50.68359 | 19.52428 | 29192 ft | 447 kts | 217° |
| 2026-04-21 09:16 | 50.65855 | 19.49518 | 29428 ft | 448 kts | 217° |
| 2026-04-21 09:17 | 50.63344 | 19.46603 | 29651 ft | 449 kts | 218° |
| 2026-04-21 09:17 | 50.60824 | 19.43679 | 29883 ft | 450 kts | 218° |
| 2026-04-21 09:17 | 50.58306 | 19.40761 | 30117 ft | 451 kts | 218° |
| 2026-04-21 09:17 | 50.55776 | 19.37838 | 30301 ft | 452 kts | 219° |
| 2026-04-21 09:18 | 50.53242 | 19.34912 | 30485 ft | 453 kts | 218° |
| 2026-04-21 09:18 | 50.50699 | 19.31977 | 30651 ft | 454 kts | 217° |
| 2026-04-21 09:18 | 50.48145 | 19.29037 | 30834 ft | 455 kts | 218° |
| 2026-04-21 09:18 | 50.45587 | 19.26096 | 30997 ft | 457 kts | 217° |
| 2026-04-21 09:19 | 50.43018 | 19.23144 | 31162 ft | 458 kts | 217° |
| 2026-04-21 09:19 | 50.40443 | 19.20189 | 31331 ft | 460 kts | 218° |
| 2026-04-21 09:19 | 50.37852 | 19.17223 | 31507 ft | 461 kts | 217° |
| 2026-04-21 09:19 | 50.35257 | 19.14252 | 31671 ft | 463 kts | 217° |
| 2026-04-21 09:20 | 50.32652 | 19.11276 | 31850 ft | 465 kts | 217° |
| 2026-04-21 09:20 | 50.30034 | 19.08291 | 32012 ft | 466 kts | 218° |
| 2026-04-21 09:20 | 50.27404 | 19.05297 | 32179 ft | 468 kts | 218° |
| 2026-04-21 09:20 | 50.24766 | 19.02294 | 32342 ft | 470 kts | 217° |
| 2026-04-21 09:21 | 50.22119 | 18.99289 | 32578 ft | 471 kts | 217° |
| 2026-04-21 09:21 | 50.19470 | 18.96284 | 32841 ft | 470 kts | 218° |
| 2026-04-21 09:21 | 50.16824 | 18.93284 | 33113 ft | 470 kts | 218° |
| 2026-04-21 09:21 | 50.14178 | 18.90293 | 33368 ft | 470 kts | 217° |
| 2026-04-21 09:22 | 50.11525 | 18.87298 | 33615 ft | 471 kts | 217° |
| 2026-04-21 09:22 | 50.08873 | 18.84305 | 33876 ft | 471 kts | 218° |
| 2026-04-21 09:22 | 50.06220 | 18.81317 | 34128 ft | 471 kts | 218° |
| 2026-04-21 09:22 | 50.03597 | 18.78367 | 34335 ft | 472 kts | 218° |
| 2026-04-21 09:23 | 50.00937 | 18.75377 | 34570 ft | 472 kts | 217° |
| 2026-04-21 09:23 | 49.98276 | 18.72394 | 34814 ft | 472 kts | 218° |
| 2026-04-21 09:23 | 49.95618 | 18.69418 | 35066 ft | 471 kts | 218° |
| 2026-04-21 09:23 | 49.92959 | 18.66442 | 35326 ft | 471 kts | 217° |
| 2026-04-21 09:24 | 49.90296 | 18.63466 | 35573 ft | 471 kts | 217° |
| 2026-04-21 09:24 | 49.87638 | 18.60501 | 35821 ft | 471 kts | 218° |
| 2026-04-21 09:24 | 49.85044 | 18.57408 | 36080 ft | 468 kts | 226° |
| 2026-04-21 09:24 | 49.82856 | 18.53709 | 36121 ft | 463 kts | 233° |
| 2026-04-21 09:25 | 49.78837 | 18.46022 | 36119 ft | 458 kts | 233° |
| 2026-04-21 09:25 | 49.74812 | 18.38414 | 36120 ft | 456 kts | 233° |
| 2026-04-21 09:26 | 49.70799 | 18.30818 | 36122 ft | 456 kts | 233° |
| 2026-04-21 09:26 | 49.66772 | 18.23234 | 36125 ft | 456 kts | 232° |
| 2026-04-21 09:27 | 49.62745 | 18.15665 | 36123 ft | 456 kts | 233° |
| 2026-04-21 09:27 | 49.58709 | 18.08103 | 36123 ft | 456 kts | 233° |
| 2026-04-21 09:28 | 49.54668 | 18.00554 | 36122 ft | 457 kts | 233° |
| 2026-04-21 09:28 | 49.50622 | 17.93014 | 36121 ft | 457 kts | 232° |
| 2026-04-21 09:29 | 49.46571 | 17.85488 | 36101 ft | 456 kts | 233° |
| 2026-04-21 09:29 | 49.42524 | 17.77994 | 36098 ft | 455 kts | 233° |
| 2026-04-21 09:30 | 49.38501 | 17.70561 | 36092 ft | 456 kts | 233° |
| 2026-04-21 09:30 | 49.34444 | 17.63091 | 36099 ft | 456 kts | 233° |
| 2026-04-21 09:31 | 49.30385 | 17.55635 | 36091 ft | 456 kts | 233° |
| 2026-04-21 09:31 | 49.26981 | 17.49398 | 36088 ft | 455 kts | 233° |
| 2026-04-21 09:32 | 49.22919 | 17.41976 | 36092 ft | 455 kts | 232° |
| 2026-04-21 09:32 | 49.18876 | 17.34609 | 36097 ft | 455 kts | 232° |
| 2026-04-21 09:33 | 49.14803 | 17.27208 | 36100 ft | 455 kts | 232° |
| 2026-04-21 09:33 | 49.10725 | 17.19819 | 36106 ft | 455 kts | 232° |
| 2026-04-21 09:34 | 49.06643 | 17.12444 | 36107 ft | 455 kts | 232° |
| 2026-04-21 09:34 | 49.02556 | 17.05079 | 36103 ft | 455 kts | 232° |
| 2026-04-21 09:35 | 48.98460 | 16.97720 | 36104 ft | 455 kts | 232° |
| 2026-04-21 09:35 | 48.94363 | 16.90379 | 36079 ft | 455 kts | 232° |
| 2026-04-21 09:36 | 48.90265 | 16.83056 | 36109 ft | 454 kts | 232° |
| 2026-04-21 09:36 | 48.86172 | 16.75762 | 36104 ft | 454 kts | 232° |
| 2026-04-21 09:37 | 48.82070 | 16.68474 | 36099 ft | 454 kts | 232° |
| 2026-04-21 09:37 | 48.77539 | 16.61816 | 36116 ft | 459 kts | 215° |
| 2026-04-21 09:38 | 48.71809 | 16.57484 | 36110 ft | 460 kts | 207° |
| 2026-04-21 09:38 | 48.65989 | 16.53507 | 36109 ft | 458 kts | 207° |
| 2026-04-21 09:39 | 48.60183 | 16.49505 | 36111 ft | 458 kts | 207° |
| 2026-04-21 09:39 | 48.54372 | 16.45536 | 36091 ft | 458 kts | 207° |
| 2026-04-21 09:40 | 48.48564 | 16.41565 | 36095 ft | 458 kts | 207° |
| 2026-04-21 09:40 | 48.42747 | 16.37605 | 36099 ft | 458 kts | 207° |
| 2026-04-21 09:41 | 48.36938 | 16.33656 | 36099 ft | 458 kts | 207° |
| 2026-04-21 09:41 | 48.31128 | 16.29719 | 36098 ft | 458 kts | 208° |
| 2026-04-21 09:42 | 48.25317 | 16.25790 | 36106 ft | 458 kts | 207° |
| 2026-04-21 09:42 | 48.19539 | 16.21893 | 36108 ft | 458 kts | 207° |
| 2026-04-21 09:43 | 48.13724 | 16.17982 | 36112 ft | 457 kts | 208° |
| 2026-04-21 09:43 | 48.07921 | 16.14087 | 36109 ft | 457 kts | 208° |
| 2026-04-21 09:44 | 48.02118 | 16.10203 | 36106 ft | 457 kts | 208° |
| 2026-04-21 09:44 | 47.96308 | 16.06323 | 36113 ft | 457 kts | 208° |
| 2026-04-21 09:45 | 47.90501 | 16.02455 | 36116 ft | 458 kts | 208° |
| 2026-04-21 09:45 | 47.84684 | 15.98590 | 36117 ft | 458 kts | 208° |
| 2026-04-21 09:46 | 47.78867 | 15.94735 | 36110 ft | 457 kts | 208° |
| 2026-04-21 09:46 | 47.73053 | 15.90891 | 36110 ft | 457 kts | 208° |
| 2026-04-21 09:47 | 47.67240 | 15.87057 | 36103 ft | 458 kts | 208° |
| 2026-04-21 09:47 | 47.61418 | 15.83227 | 36090 ft | 458 kts | 208° |
| 2026-04-21 09:48 | 47.55599 | 15.79407 | 36063 ft | 457 kts | 208° |
| 2026-04-21 09:48 | 47.49782 | 15.75599 | 36007 ft | 455 kts | 208° |
| 2026-04-21 09:49 | 47.46891 | 15.73711 | 35549 ft | 455 kts | 208° |
| 2026-04-21 09:49 | 47.43993 | 15.71817 | 34952 ft | 456 kts | 209° |
| 2026-04-21 09:49 | 47.41126 | 15.69947 | 34359 ft | 457 kts | 209° |
| 2026-04-21 09:49 | 47.38215 | 15.68052 | 33695 ft | 457 kts | 209° |
| 2026-04-21 09:50 | 47.35307 | 15.66163 | 33073 ft | 456 kts | 209° |
| 2026-04-21 09:50 | 47.34328 | 15.65527 | 32862 ft | 454 kts | 209° |
| 2026-04-21 09:50 | 47.26667 | 15.60555 | 31204 ft | 450 kts | 209° |
| 2026-04-21 09:51 | 47.23807 | 15.58704 | 30561 ft | 448 kts | 209° |
| 2026-04-21 09:51 | 47.20959 | 15.56863 | 29904 ft | 447 kts | 209° |
| 2026-04-21 09:51 | 47.18124 | 15.55034 | 29280 ft | 442 kts | 209° |
| 2026-04-21 09:51 | 47.15319 | 15.53225 | 28644 ft | 438 kts | 210° |
| 2026-04-21 09:52 | 47.12544 | 15.51437 | 28060 ft | 433 kts | 209° |
| 2026-04-21 09:52 | 47.09798 | 15.49668 | 27469 ft | 430 kts | 209° |
| 2026-04-21 09:52 | 47.07069 | 15.47913 | 26867 ft | 427 kts | 208° |
| 2026-04-21 09:52 | 47.04358 | 15.46173 | 26282 ft | 424 kts | 208° |
| 2026-04-21 09:53 | 47.01669 | 15.44448 | 25696 ft | 421 kts | 207° |
| 2026-04-21 09:53 | 46.98989 | 15.42730 | 25111 ft | 419 kts | 207° |
| 2026-04-21 09:53 | 46.96331 | 15.41030 | 24534 ft | 416 kts | 208° |
| 2026-04-21 09:53 | 46.93685 | 15.39340 | 23975 ft | 414 kts | 208° |
| 2026-04-21 09:54 | 46.91053 | 15.37657 | 23362 ft | 412 kts | 208° |
| 2026-04-21 09:54 | 46.88440 | 15.35991 | 22795 ft | 408 kts | 207° |
| 2026-04-21 09:54 | 46.85854 | 15.34344 | 22237 ft | 404 kts | 207° |
| 2026-04-21 09:54 | 46.83290 | 15.32711 | 21692 ft | 400 kts | 207° |
| 2026-04-21 09:55 | 46.80746 | 15.31093 | 21142 ft | 397 kts | 207° |
| 2026-04-21 09:55 | 46.78225 | 15.29492 | 20598 ft | 394 kts | 207° |
| 2026-04-21 09:55 | 46.75724 | 15.27904 | 20063 ft | 390 kts | 208° |
| 2026-04-21 09:55 | 46.73245 | 15.26332 | 19534 ft | 387 kts | 208° |
| 2026-04-21 09:56 | 46.70780 | 15.24772 | 19010 ft | 385 kts | 207° |
| 2026-04-21 09:56 | 46.68336 | 15.23225 | 18499 ft | 382 kts | 207° |
| 2026-04-21 09:56 | 46.65901 | 15.21686 | 17940 ft | 380 kts | 207° |
| 2026-04-21 09:56 | 46.63487 | 15.20167 | 17423 ft | 376 kts | 206° |
| 2026-04-21 09:57 | 46.61085 | 15.18701 | 16913 ft | 372 kts | 206° |
| 2026-04-21 09:57 | 46.58701 | 15.17269 | 16412 ft | 369 kts | 206° |
| 2026-04-21 09:57 | 46.56339 | 15.15831 | 15914 ft | 366 kts | 207° |
| 2026-04-21 09:57 | 46.54005 | 15.14397 | 15418 ft | 364 kts | 206° |
| 2026-04-21 09:58 | 46.51677 | 15.12977 | 14925 ft | 362 kts | 206° |
| 2026-04-21 09:58 | 46.49388 | 15.11587 | 14443 ft | 361 kts | 205° |
| 2026-04-21 09:58 | 46.47069 | 15.10180 | 13910 ft | 361 kts | 205° |
| 2026-04-21 09:58 | 46.44759 | 15.08778 | 13395 ft | 358 kts | 205° |
| 2026-04-21 09:59 | 46.42473 | 15.07392 | 12919 ft | 354 kts | 205° |
| 2026-04-21 09:59 | 46.40207 | 15.06018 | 12444 ft | 351 kts | 205° |
| 2026-04-21 09:59 | 46.37964 | 15.04660 | 11972 ft | 348 kts | 205° |
| 2026-04-21 09:59 | 46.35734 | 15.03310 | 11517 ft | 346 kts | 205° |
| 2026-04-21 10:00 | 46.33520 | 15.01972 | 11058 ft | 344 kts | 205° |
| 2026-04-21 10:00 | 46.31338 | 15.00603 | 10603 ft | 340 kts | 210° |
| 2026-04-21 10:00 | 46.29365 | 14.98765 | 10163 ft | 336 kts | 217° |
| 2026-04-21 10:00 | 46.27473 | 14.96815 | 9686 ft | 327 kts | 218° |
| 2026-04-21 10:01 | 46.25713 | 14.94997 | 9263 ft | 297 kts | 217° |
| 2026-04-21 10:01 | 46.24108 | 14.93379 | 8948 ft | 263 kts | 217° |
| 2026-04-21 10:01 | 46.22635 | 14.91903 | 8607 ft | 257 kts | 217° |
| 2026-04-21 10:01 | 46.21175 | 14.90424 | 8269 ft | 254 kts | 217° |
| 2026-04-21 10:02 | 46.18282 | 14.87500 | 7581 ft | 253 kts | 216° |
| 2026-04-21 10:02 | 46.16837 | 14.86043 | 7258 ft | 253 kts | 215° |
| 2026-04-21 10:02 | 46.15393 | 14.84588 | 6917 ft | 252 kts | 215° |
| 2026-04-21 10:03 | 46.13965 | 14.83151 | 6583 ft | 250 kts | 215° |
| 2026-04-21 10:03 | 46.12533 | 14.81708 | 6238 ft | 249 kts | 214° |
| 2026-04-21 10:03 | 46.11124 | 14.80291 | 5900 ft | 247 kts | 214° |
| 2026-04-21 10:03 | 46.09714 | 14.78874 | 5581 ft | 249 kts | 213° |
| 2026-04-21 10:04 | 46.08500 | 14.77142 | 5213 ft | 246 kts | 239° |
| 2026-04-21 10:04 | 46.08064 | 14.74794 | 4913 ft | 246 kts | 274° |
| 2026-04-21 10:04 | 46.08631 | 14.72535 | 4694 ft | 240 kts | 307° |
| 2026-04-21 10:04 | 46.09621 | 14.70602 | 4456 ft | 240 kts | 309° |
| 2026-04-21 10:05 | 46.10612 | 14.68683 | 4262 ft | 239 kts | 309° |
| 2026-04-21 10:05 | 46.11607 | 14.66744 | 4045 ft | 241 kts | 308° |
| 2026-04-21 10:05 | 46.12597 | 14.64812 | 4000 ft | 240 kts | 308° |
| 2026-04-21 10:05 | 46.13599 | 14.62863 | 3868 ft | 241 kts | 308° |
| 2026-04-21 10:06 | 46.14561 | 14.60987 | 3548 ft | 223 kts | 308° |
| 2026-04-21 10:06 | 46.15419 | 14.59310 | 3257 ft | 193 kts | 308° |
| 2026-04-21 10:06 | 46.16165 | 14.57867 | 2986 ft | 167 kts | 308° |
| 2026-04-21 10:06 | 46.16808 | 14.56603 | 2740 ft | 154 kts | 309° |
| 2026-04-21 10:07 | 46.17445 | 14.55367 | 2550 ft | 151 kts | 309° |
| 2026-04-21 10:07 | 46.18068 | 14.54155 | 2368 ft | 151 kts | 308° |
| 2026-04-21 10:07 | 46.18694 | 14.52935 | 2179 ft | 150 kts | 308° |
| 2026-04-21 10:07 | 46.19298 | 14.51753 | 1974 ft | 145 kts | 308° |
| 2026-04-21 10:08 | 46.19897 | 14.50581 | 1777 ft | 144 kts | 307° |
| 2026-04-21 10:08 | 46.20486 | 14.49431 | 1556 ft | 140 kts | 307° |
| 2026-04-21 10:08 | 46.21060 | 14.48308 | 1343 ft | 139 kts | 308° |
| 2026-04-21 10:08 | 46.21635 | 14.47189 | 1251 ft | 139 kts | 308° |
| 2026-04-21 10:09 | 46.22138 | 14.46212 | 1249 ft | 95 kts | 306° |
| 2026-04-21 10:09 | 46.22393 | 14.45715 | 1259 ft | 33 kts | 306° |
| 2026-04-21 10:09 | 46.22490 | 14.45531 | 1262 ft | 20 kts | 315° |
| 2026-04-21 10:09 | 46.22592 | 14.45414 | 1256 ft | 18 kts | 327° |
| 2026-04-21 10:10 | 46.22688 | 14.45353 | 1262 ft | 13 kts | 338° |
| 2026-04-21 10:10 | 46.22772 | 14.45323 | 1262 ft | 12 kts | 353° |
| 2026-04-21 10:10 | 46.22852 | 14.45325 | 1267 ft | 11 kts | 23° |
| 2026-04-21 10:10 | 46.22917 | 14.45393 | 1262 ft | 11 kts | 37° |
| 2026-04-21 10:11 | 46.22983 | 14.45445 | 1262 ft | 11 kts | 36° |
| 2026-04-21 10:11 | 46.23008 | 14.45472 | 1269 ft | 0 kts | 36° |